sensor_id;sensor_type;location;lat;lon;timestamp;temperature;humidity
66710;DHT22;53624;0.000;0.000;2022-11-13T00:02:21;14.30;99.90
66710;DHT22;53624;0.000;0.000;2022-11-13T00:05:07;14.30;99.90
66710;DHT22;53624;0.000;0.000;2022-11-13T00:07:53;14.30;99.90
66710;DHT22;53624;0.000;0.000;2022-11-13T00:10:39;14.30;99.90
66710;DHT22;53624;0.000;0.000;2022-11-13T00:13:24;14.30;99.90
66710;DHT22;53624;0.000;0.000;2022-11-13T00:16:12;14.30;99.90
66710;DHT22;53624;0.000;0.000;2022-11-13T00:18:58;14.30;99.90
66710;DHT22;53624;0.000;0.000;2022-11-13T00:21:44;14.30;99.90
66710;DHT22;53624;0.000;0.000;2022-11-13T00:24:30;14.20;99.90
66710;DHT22;53624;0.000;0.000;2022-11-13T00:27:16;14.20;99.90
66710;DHT22;53624;0.000;0.000;2022-11-13T00:30:02;14.20;99.90
66710;DHT22;53624;0.000;0.000;2022-11-13T00:32:50;14.20;99.90
66710;DHT22;53624;0.000;0.000;2022-11-13T00:35:36;14.20;99.90
66710;DHT22;53624;0.000;0.000;2022-11-13T00:38:22;14.20;99.90
66710;DHT22;53624;0.000;0.000;2022-11-13T00:41:07;14.20;99.90
66710;DHT22;53624;0.000;0.000;2022-11-13T00:43:53;14.20;99.90
66710;DHT22;53624;0.000;0.000;2022-11-13T00:46:39;14.20;99.90
66710;DHT22;53624;0.000;0.000;2022-11-13T00:49:26;14.20;99.90
66710;DHT22;53624;0.000;0.000;2022-11-13T00:52:12;14.10;99.90
66710;DHT22;53624;0.000;0.000;2022-11-13T00:54:58;14.10;99.90
66710;DHT22;53624;0.000;0.000;2022-11-13T00:57:44;14.10;99.90
66710;DHT22;53624;0.000;0.000;2022-11-13T01:00:30;14.10;99.90
66710;DHT22;53624;0.000;0.000;2022-11-13T01:03:16;14.10;99.90
66710;DHT22;53624;0.000;0.000;2022-11-13T01:06:09;14.10;99.90
66710;DHT22;53624;0.000;0.000;2022-11-13T01:08:56;14.10;99.90
66710;DHT22;53624;0.000;0.000;2022-11-13T01:11:42;14.10;99.90
66710;DHT22;53624;0.000;0.000;2022-11-13T01:14:28;14.10;99.90
66710;DHT22;53624;0.000;0.000;2022-11-13T01:17:14;14.10;99.90
66710;DHT22;53624;0.000;0.000;2022-11-13T01:20:00;14.10;99.90
66710;DHT22;53624;0.000;0.000;2022-11-13T01:22:47;14.00;99.90
66710;DHT22;53624;0.000;0.000;2022-11-13T01:25:34;14.00;99.90
66710;DHT22;53624;0.000;0.000;2022-11-13T01:28:20;14.00;99.90
66710;DHT22;53624;0.000;0.000;2022-11-13T01:31:06;14.00;99.90
66710;DHT22;53624;0.000;0.000;2022-11-13T01:33:52;14.00;99.90
66710;DHT22;53624;0.000;0.000;2022-11-13T01:36:38;14.00;99.90
66710;DHT22;53624;0.000;0.000;2022-11-13T01:39:25;14.00;99.90
66710;DHT22;53624;0.000;0.000;2022-11-13T01:42:11;14.00;99.90
66710;DHT22;53624;0.000;0.000;2022-11-13T01:44:57;14.00;99.90
66710;DHT22;53624;0.000;0.000;2022-11-13T01:47:44;14.00;99.90
66710;DHT22;53624;0.000;0.000;2022-11-13T01:50:31;13.90;99.90
66710;DHT22;53624;0.000;0.000;2022-11-13T01:53:17;14.00;99.90
66710;DHT22;53624;0.000;0.000;2022-11-13T01:56:05;13.90;99.90
66710;DHT22;53624;0.000;0.000;2022-11-13T01:58:53;13.90;99.90
66710;DHT22;53624;0.000;0.000;2022-11-13T02:01:39;13.90;99.90
66710;DHT22;53624;0.000;0.000;2022-11-13T02:04:26;13.90;99.90
66710;DHT22;53624;0.000;0.000;2022-11-13T02:07:13;13.90;99.90
66710;DHT22;53624;0.000;0.000;2022-11-13T02:09:59;13.90;99.90
66710;DHT22;53624;0.000;0.000;2022-11-13T02:12:47;13.80;99.90
66710;DHT22;53624;0.000;0.000;2022-11-13T02:15:34;13.80;99.90
66710;DHT22;53624;0.000;0.000;2022-11-13T02:18:20;13.80;99.90
66710;DHT22;53624;0.000;0.000;2022-11-13T02:21:09;13.80;99.90
66710;DHT22;53624;0.000;0.000;2022-11-13T02:26:52;13.80;99.90
66710;DHT22;53624;0.000;0.000;2022-11-13T02:29:39;13.80;99.90
66710;DHT22;53624;0.000;0.000;2022-11-13T02:32:24;13.80;99.90
66710;DHT22;53624;0.000;0.000;2022-11-13T02:35:10;13.80;99.90
66710;DHT22;53624;0.000;0.000;2022-11-13T02:37:58;13.80;99.90
66710;DHT22;53624;0.000;0.000;2022-11-13T02:40:44;13.80;99.90
66710;DHT22;53624;0.000;0.000;2022-11-13T02:43:31;13.80;99.90
66710;DHT22;53624;0.000;0.000;2022-11-13T02:46:17;13.70;99.90
66710;DHT22;53624;0.000;0.000;2022-11-13T02:49:03;13.70;99.90
66710;DHT22;53624;0.000;0.000;2022-11-13T02:51:49;13.70;99.90
66710;DHT22;53624;0.000;0.000;2022-11-13T02:54:35;13.70;99.90
66710;DHT22;53624;0.000;0.000;2022-11-13T02:57:21;13.70;99.90
66710;DHT22;53624;0.000;0.000;2022-11-13T03:00:09;13.70;99.90
66710;DHT22;53624;0.000;0.000;2022-11-13T03:02:56;13.60;99.90
66710;DHT22;53624;0.000;0.000;2022-11-13T03:05:42;13.60;99.90
66710;DHT22;53624;0.000;0.000;2022-11-13T03:08:32;13.60;99.90
66710;DHT22;53624;0.000;0.000;2022-11-13T03:11:18;13.60;99.90
66710;DHT22;53624;0.000;0.000;2022-11-13T03:14:04;13.60;99.90
66710;DHT22;53624;0.000;0.000;2022-11-13T03:16:51;13.60;99.90
66710;DHT22;53624;0.000;0.000;2022-11-13T03:19:37;13.60;99.90
66710;DHT22;53624;0.000;0.000;2022-11-13T03:22:23;13.60;99.90
66710;DHT22;53624;0.000;0.000;2022-11-13T03:25:09;13.60;99.90
66710;DHT22;53624;0.000;0.000;2022-11-13T03:27:55;13.50;99.90
66710;DHT22;53624;0.000;0.000;2022-11-13T03:30:41;13.60;99.90
66710;DHT22;53624;0.000;0.000;2022-11-13T03:33:28;13.50;99.90
66710;DHT22;53624;0.000;0.000;2022-11-13T03:36:14;13.50;99.90
66710;DHT22;53624;0.000;0.000;2022-11-13T03:39:00;13.50;99.90
66710;DHT22;53624;0.000;0.000;2022-11-13T03:41:47;13.50;99.90
66710;DHT22;53624;0.000;0.000;2022-11-13T03:44:32;13.50;99.90
66710;DHT22;53624;0.000;0.000;2022-11-13T03:47:18;13.50;99.90
66710;DHT22;53624;0.000;0.000;2022-11-13T03:50:06;13.50;99.90
66710;DHT22;53624;0.000;0.000;2022-11-13T03:52:52;13.50;99.90
66710;DHT22;53624;0.000;0.000;2022-11-13T03:55:38;13.50;99.90
66710;DHT22;53624;0.000;0.000;2022-11-13T03:58:24;13.50;99.90
66710;DHT22;53624;0.000;0.000;2022-11-13T04:01:10;13.50;99.90
66710;DHT22;53624;0.000;0.000;2022-11-13T04:03:56;13.50;99.90
66710;DHT22;53624;0.000;0.000;2022-11-13T04:06:43;13.50;99.90
66710;DHT22;53624;0.000;0.000;2022-11-13T04:09:29;13.40;99.90
66710;DHT22;53624;0.000;0.000;2022-11-13T04:12:15;13.40;99.90
66710;DHT22;53624;0.000;0.000;2022-11-13T04:15:01;13.40;99.90
66710;DHT22;53624;0.000;0.000;2022-11-13T04:17:46;13.40;99.90
66710;DHT22;53624;0.000;0.000;2022-11-13T04:20:32;13.40;99.90
66710;DHT22;53624;0.000;0.000;2022-11-13T04:23:20;13.40;99.90
66710;DHT22;53624;0.000;0.000;2022-11-13T04:26:06;13.40;99.90
66710;DHT22;53624;0.000;0.000;2022-11-13T04:28:51;13.40;99.90
66710;DHT22;53624;0.000;0.000;2022-11-13T04:31:37;13.40;99.90
66710;DHT22;53624;0.000;0.000;2022-11-13T04:34:23;13.40;99.90
66710;DHT22;53624;0.000;0.000;2022-11-13T04:37:09;13.40;99.90
66710;DHT22;53624;0.000;0.000;2022-11-13T04:39:57;13.40;99.90
66710;DHT22;53624;0.000;0.000;2022-11-13T04:42:43;13.40;99.90
66710;DHT22;53624;0.000;0.000;2022-11-13T04:45:33;13.40;99.90
66710;DHT22;53624;0.000;0.000;2022-11-13T04:48:19;13.40;99.90
66710;DHT22;53624;0.000;0.000;2022-11-13T04:51:05;13.40;99.90
66710;DHT22;53624;0.000;0.000;2022-11-13T04:53:51;13.40;99.90
66710;DHT22;53624;0.000;0.000;2022-11-13T04:56:38;13.30;99.90
66710;DHT22;53624;0.000;0.000;2022-11-13T04:59:24;13.30;99.90
66710;DHT22;53624;0.000;0.000;2022-11-13T05:02:10;13.40;99.90
66710;DHT22;53624;0.000;0.000;2022-11-13T05:04:56;13.30;99.90
66710;DHT22;53624;0.000;0.000;2022-11-13T05:07:43;13.30;99.90
66710;DHT22;53624;0.000;0.000;2022-11-13T05:10:29;13.30;99.90
66710;DHT22;53624;0.000;0.000;2022-11-13T05:13:16;13.30;99.90
66710;DHT22;53624;0.000;0.000;2022-11-13T05:16:03;13.30;99.90
66710;DHT22;53624;0.000;0.000;2022-11-13T05:18:49;13.30;99.90
66710;DHT22;53624;0.000;0.000;2022-11-13T05:21:35;13.30;99.90
66710;DHT22;53624;0.000;0.000;2022-11-13T05:24:21;13.30;99.90
66710;DHT22;53624;0.000;0.000;2022-11-13T05:27:07;13.30;99.90
66710;DHT22;53624;0.000;0.000;2022-11-13T05:29:54;13.30;99.90
66710;DHT22;53624;0.000;0.000;2022-11-13T05:32:40;13.30;99.90
66710;DHT22;53624;0.000;0.000;2022-11-13T05:35:26;13.30;99.90
66710;DHT22;53624;0.000;0.000;2022-11-13T05:38:12;13.30;99.90
66710;DHT22;53624;0.000;0.000;2022-11-13T05:41:01;13.30;99.90
66710;DHT22;53624;0.000;0.000;2022-11-13T05:43:47;13.30;99.90
66710;DHT22;53624;0.000;0.000;2022-11-13T05:46:35;13.30;99.90
66710;DHT22;53624;0.000;0.000;2022-11-13T05:49:21;13.30;99.90
66710;DHT22;53624;0.000;0.000;2022-11-13T05:52:07;13.30;99.90
66710;DHT22;53624;0.000;0.000;2022-11-13T05:54:53;13.30;99.90
66710;DHT22;53624;0.000;0.000;2022-11-13T05:57:39;13.30;99.90
66710;DHT22;53624;0.000;0.000;2022-11-13T06:00:24;13.30;99.90
66710;DHT22;53624;0.000;0.000;2022-11-13T06:03:12;13.20;99.90
66710;DHT22;53624;0.000;0.000;2022-11-13T06:05:58;13.30;99.90
66710;DHT22;53624;0.000;0.000;2022-11-13T06:08:44;13.30;99.90
66710;DHT22;53624;0.000;0.000;2022-11-13T06:11:30;13.20;99.90
66710;DHT22;53624;0.000;0.000;2022-11-13T06:14:17;13.30;99.90
66710;DHT22;53624;0.000;0.000;2022-11-13T06:17:03;13.30;99.90
66710;DHT22;53624;0.000;0.000;2022-11-13T06:19:50;13.20;99.90
66710;DHT22;53624;0.000;0.000;2022-11-13T06:22:36;13.20;99.90
66710;DHT22;53624;0.000;0.000;2022-11-13T06:25:22;13.20;99.90
66710;DHT22;53624;0.000;0.000;2022-11-13T06:28:08;13.20;99.90
66710;DHT22;53624;0.000;0.000;2022-11-13T06:30:54;13.20;99.90
66710;DHT22;53624;0.000;0.000;2022-11-13T06:33:40;13.20;99.90
66710;DHT22;53624;0.000;0.000;2022-11-13T06:36:28;13.20;99.90
66710;DHT22;53624;0.000;0.000;2022-11-13T06:39:14;13.20;99.90
66710;DHT22;53624;0.000;0.000;2022-11-13T06:42:00;13.20;99.90
66710;DHT22;53624;0.000;0.000;2022-11-13T06:44:46;13.20;99.90
66710;DHT22;53624;0.000;0.000;2022-11-13T06:47:32;13.20;99.90
66710;DHT22;53624;0.000;0.000;2022-11-13T06:50:18;13.20;99.90
66710;DHT22;53624;0.000;0.000;2022-11-13T06:53:05;13.20;99.90
66710;DHT22;53624;0.000;0.000;2022-11-13T06:55:51;13.20;99.90
66710;DHT22;53624;0.000;0.000;2022-11-13T06:58:37;13.20;99.90
66710;DHT22;53624;0.000;0.000;2022-11-13T07:01:23;13.20;99.90
66710;DHT22;53624;0.000;0.000;2022-11-13T07:04:10;13.20;99.90
66710;DHT22;53624;0.000;0.000;2022-11-13T07:07:01;13.20;99.90
66710;DHT22;53624;0.000;0.000;2022-11-13T07:09:52;13.20;99.90
66710;DHT22;53624;0.000;0.000;2022-11-13T07:12:38;13.20;99.90
66710;DHT22;53624;0.000;0.000;2022-11-13T07:15:25;13.20;99.90
66710;DHT22;53624;0.000;0.000;2022-11-13T07:18:11;13.20;99.90
66710;DHT22;53624;0.000;0.000;2022-11-13T07:20:57;13.20;99.90
66710;DHT22;53624;0.000;0.000;2022-11-13T07:23:43;13.30;99.90
66710;DHT22;53624;0.000;0.000;2022-11-13T07:26:33;13.20;99.90
66710;DHT22;53624;0.000;0.000;2022-11-13T07:29:19;13.20;99.90
66710;DHT22;53624;0.000;0.000;2022-11-13T07:32:05;13.20;99.90
66710;DHT22;53624;0.000;0.000;2022-11-13T07:34:51;13.30;99.90
66710;DHT22;53624;0.000;0.000;2022-11-13T07:37:36;13.30;99.90
66710;DHT22;53624;0.000;0.000;2022-11-13T07:40:22;13.30;99.90
66710;DHT22;53624;0.000;0.000;2022-11-13T07:43:10;13.30;99.90
66710;DHT22;53624;0.000;0.000;2022-11-13T07:45:56;13.30;99.90
66710;DHT22;53624;0.000;0.000;2022-11-13T07:48:42;13.30;99.90
66710;DHT22;53624;0.000;0.000;2022-11-13T07:51:28;13.40;99.90
66710;DHT22;53624;0.000;0.000;2022-11-13T07:54:14;13.30;99.90
66710;DHT22;53624;0.000;0.000;2022-11-13T07:57:00;13.40;99.90
66710;DHT22;53624;0.000;0.000;2022-11-13T07:59:47;13.40;99.90
66710;DHT22;53624;0.000;0.000;2022-11-13T08:02:33;13.40;99.90
66710;DHT22;53624;0.000;0.000;2022-11-13T08:05:19;13.40;99.90
66710;DHT22;53624;0.000;0.000;2022-11-13T08:08:06;13.40;99.90
66710;DHT22;53624;0.000;0.000;2022-11-13T08:10:52;13.40;99.90
66710;DHT22;53624;0.000;0.000;2022-11-13T08:13:38;13.40;99.90
66710;DHT22;53624;0.000;0.000;2022-11-13T08:16:26;13.40;99.90
66710;DHT22;53624;0.000;0.000;2022-11-13T08:19:12;13.40;99.90
66710;DHT22;53624;0.000;0.000;2022-11-13T08:21:58;13.40;99.90
66710;DHT22;53624;0.000;0.000;2022-11-13T08:24:44;13.40;99.90
66710;DHT22;53624;0.000;0.000;2022-11-13T08:27:30;13.50;99.90
66710;DHT22;53624;0.000;0.000;2022-11-13T08:30:15;13.50;99.90
66710;DHT22;53624;0.000;0.000;2022-11-13T08:33:04;13.50;99.90
66710;DHT22;53624;0.000;0.000;2022-11-13T08:36:08;13.50;99.90
66710;DHT22;53624;0.000;0.000;2022-11-13T08:38:55;13.50;99.90
66710;DHT22;53624;0.000;0.000;2022-11-13T08:41:41;13.50;99.90
66710;DHT22;53624;0.000;0.000;2022-11-13T08:44:27;13.50;99.90
66710;DHT22;53624;0.000;0.000;2022-11-13T08:47:12;13.50;99.90
66710;DHT22;53624;0.000;0.000;2022-11-13T08:50:00;13.50;99.90
66710;DHT22;53624;0.000;0.000;2022-11-13T08:52:46;13.50;99.90
66710;DHT22;53624;0.000;0.000;2022-11-13T08:55:32;13.60;99.90
66710;DHT22;53624;0.000;0.000;2022-11-13T08:58:18;13.60;99.90
66710;DHT22;53624;0.000;0.000;2022-11-13T09:01:04;13.60;99.90
66710;DHT22;53624;0.000;0.000;2022-11-13T09:03:50;13.60;99.90
66710;DHT22;53624;0.000;0.000;2022-11-13T09:06:37;13.60;99.90
66710;DHT22;53624;0.000;0.000;2022-11-13T09:09:24;13.60;99.90
66710;DHT22;53624;0.000;0.000;2022-11-13T09:12:09;13.60;99.90
66710;DHT22;53624;0.000;0.000;2022-11-13T09:14:55;13.60;99.90
66710;DHT22;53624;0.000;0.000;2022-11-13T09:17:41;13.60;99.90
66710;DHT22;53624;0.000;0.000;2022-11-13T09:20:27;13.60;99.90
66710;DHT22;53624;0.000;0.000;2022-11-13T09:23:15;13.70;99.90
66710;DHT22;53624;0.000;0.000;2022-11-13T09:26:01;13.70;99.90
66710;DHT22;53624;0.000;0.000;2022-11-13T09:28:47;13.70;99.90
66710;DHT22;53624;0.000;0.000;2022-11-13T09:31:33;13.70;99.90
66710;DHT22;53624;0.000;0.000;2022-11-13T09:34:18;13.70;99.90
66710;DHT22;53624;0.000;0.000;2022-11-13T09:37:04;13.70;99.90
66710;DHT22;53624;0.000;0.000;2022-11-13T09:39:52;13.70;99.90
66710;DHT22;53624;0.000;0.000;2022-11-13T09:42:38;13.70;99.90
66710;DHT22;53624;0.000;0.000;2022-11-13T09:45:24;13.80;99.90
66710;DHT22;53624;0.000;0.000;2022-11-13T09:48:22;13.80;99.90
66710;DHT22;53624;0.000;0.000;2022-11-13T09:51:11;13.80;99.90
66710;DHT22;53624;0.000;0.000;2022-11-13T09:53:58;13.80;99.90
66710;DHT22;53624;0.000;0.000;2022-11-13T09:56:51;13.80;99.90
66710;DHT22;53624;0.000;0.000;2022-11-13T09:59:45;13.80;99.90
66710;DHT22;53624;0.000;0.000;2022-11-13T10:02:35;13.80;99.90
66710;DHT22;53624;0.000;0.000;2022-11-13T10:05:27;13.90;99.90
66710;DHT22;53624;0.000;0.000;2022-11-13T10:08:14;13.90;99.90
66710;DHT22;53624;0.000;0.000;2022-11-13T10:11:04;13.90;99.90
66710;DHT22;53624;0.000;0.000;2022-11-13T10:13:53;13.90;99.90
66710;DHT22;53624;0.000;0.000;2022-11-13T10:16:42;13.90;99.90
66710;DHT22;53624;0.000;0.000;2022-11-13T10:19:31;14.00;99.90
66710;DHT22;53624;0.000;0.000;2022-11-13T10:22:20;14.00;99.90
66710;DHT22;53624;0.000;0.000;2022-11-13T10:25:10;14.00;99.90
66710;DHT22;53624;0.000;0.000;2022-11-13T10:27:57;14.00;99.90
66710;DHT22;53624;0.000;0.000;2022-11-13T10:30:45;14.00;99.90
66710;DHT22;53624;0.000;0.000;2022-11-13T10:33:31;14.10;99.90
66710;DHT22;53624;0.000;0.000;2022-11-13T10:36:19;14.10;99.90
66710;DHT22;53624;0.000;0.000;2022-11-13T10:39:06;14.10;99.90
66710;DHT22;53624;0.000;0.000;2022-11-13T10:41:53;14.10;99.90
66710;DHT22;53624;0.000;0.000;2022-11-13T10:44:39;14.10;99.90
66710;DHT22;53624;0.000;0.000;2022-11-13T10:47:27;14.20;99.90
66710;DHT22;53624;0.000;0.000;2022-11-13T10:50:18;14.30;99.90
66710;DHT22;53624;0.000;0.000;2022-11-13T10:53:12;14.40;99.90
66710;DHT22;53624;0.000;0.000;2022-11-13T10:55:59;14.40;99.90
66710;DHT22;53624;0.000;0.000;2022-11-13T10:58:57;14.50;99.90
66710;DHT22;53624;0.000;0.000;2022-11-13T11:01:44;14.50;99.90
66710;DHT22;53624;0.000;0.000;2022-11-13T11:04:32;14.50;99.90
66710;DHT22;53624;0.000;0.000;2022-11-13T11:07:19;14.50;99.90
66710;DHT22;53624;0.000;0.000;2022-11-13T11:10:06;14.50;99.90
66710;DHT22;53624;0.000;0.000;2022-11-13T11:13:04;14.60;99.90
66710;DHT22;53624;0.000;0.000;2022-11-13T11:15:52;14.60;99.90
66710;DHT22;53624;0.000;0.000;2022-11-13T11:18:39;14.70;99.90
66710;DHT22;53624;0.000;0.000;2022-11-13T11:21:29;14.70;99.90
66710;DHT22;53624;0.000;0.000;2022-11-13T11:24:18;14.70;99.90
66710;DHT22;53624;0.000;0.000;2022-11-13T11:27:07;14.70;99.90
66710;DHT22;53624;0.000;0.000;2022-11-13T11:29:58;14.70;99.90
66710;DHT22;53624;0.000;0.000;2022-11-13T11:32:46;14.70;99.90
66710;DHT22;53624;0.000;0.000;2022-11-13T11:35:36;14.70;99.90
66710;DHT22;53624;0.000;0.000;2022-11-13T11:38:25;14.60;99.90
66710;DHT22;53624;0.000;0.000;2022-11-13T11:41:15;14.60;99.90
66710;DHT22;53624;0.000;0.000;2022-11-13T11:44:03;14.60;99.90
66710;DHT22;53624;0.000;0.000;2022-11-13T11:46:53;14.70;99.90
66710;DHT22;53624;0.000;0.000;2022-11-13T11:49:39;14.60;99.90
66710;DHT22;53624;0.000;0.000;2022-11-13T11:52:28;14.60;99.90
66710;DHT22;53624;0.000;0.000;2022-11-13T11:55:23;14.60;99.90
66710;DHT22;53624;0.000;0.000;2022-11-13T11:58:15;14.60;99.90
66710;DHT22;53624;0.000;0.000;2022-11-13T12:01:05;14.60;99.90
66710;DHT22;53624;0.000;0.000;2022-11-13T12:03:58;14.60;99.90
66710;DHT22;53624;0.000;0.000;2022-11-13T12:06:48;14.60;99.90
66710;DHT22;53624;0.000;0.000;2022-11-13T12:09:37;14.60;99.90
66710;DHT22;53624;0.000;0.000;2022-11-13T12:12:27;14.60;99.90
66710;DHT22;53624;0.000;0.000;2022-11-13T12:15:17;14.60;99.90
66710;DHT22;53624;0.000;0.000;2022-11-13T12:18:08;14.60;99.90
66710;DHT22;53624;0.000;0.000;2022-11-13T12:20:57;14.60;99.90
66710;DHT22;53624;0.000;0.000;2022-11-13T12:23:51;14.60;99.90
66710;DHT22;53624;0.000;0.000;2022-11-13T12:26:42;14.60;99.90
66710;DHT22;53624;0.000;0.000;2022-11-13T12:29:35;14.60;99.90
66710;DHT22;53624;0.000;0.000;2022-11-13T12:32:27;14.60;99.90
66710;DHT22;53624;0.000;0.000;2022-11-13T12:35:16;14.60;99.90
66710;DHT22;53624;0.000;0.000;2022-11-13T12:38:04;14.60;99.90
66710;DHT22;53624;0.000;0.000;2022-11-13T12:40:55;14.60;99.90
66710;DHT22;53624;0.000;0.000;2022-11-13T12:46:56;14.70;99.90
66710;DHT22;53624;0.000;0.000;2022-11-13T12:49:44;14.70;99.90
66710;DHT22;53624;0.000;0.000;2022-11-13T12:52:30;14.80;99.90
66710;DHT22;53624;0.000;0.000;2022-11-13T12:55:23;14.90;99.90
66710;DHT22;53624;0.000;0.000;2022-11-13T12:58:10;14.90;99.90
66710;DHT22;53624;0.000;0.000;2022-11-13T13:01:03;15.00;99.90
66710;DHT22;53624;0.000;0.000;2022-11-13T13:04:00;14.90;99.90
66710;DHT22;53624;0.000;0.000;2022-11-13T13:06:51;14.90;99.90
66710;DHT22;53624;0.000;0.000;2022-11-13T13:09:43;14.90;99.90
66710;DHT22;53624;0.000;0.000;2022-11-13T13:12:37;14.90;99.90
66710;DHT22;53624;0.000;0.000;2022-11-13T13:15:27;14.80;99.90
66710;DHT22;53624;0.000;0.000;2022-11-13T13:18:23;15.10;99.90
66710;DHT22;53624;0.000;0.000;2022-11-13T13:21:12;15.30;99.90
66710;DHT22;53624;0.000;0.000;2022-11-13T13:24:05;15.60;99.90
66710;DHT22;53624;0.000;0.000;2022-11-13T13:26:51;15.80;99.90
66710;DHT22;53624;0.000;0.000;2022-11-13T13:29:38;16.00;99.90
66710;DHT22;53624;0.000;0.000;2022-11-13T13:32:26;16.10;99.90
66710;DHT22;53624;0.000;0.000;2022-11-13T13:35:13;16.20;99.90
66710;DHT22;53624;0.000;0.000;2022-11-13T13:38:03;16.10;99.90
66710;DHT22;53624;0.000;0.000;2022-11-13T13:40:54;16.20;99.90
66710;DHT22;53624;0.000;0.000;2022-11-13T13:43:45;16.10;99.90
66710;DHT22;53624;0.000;0.000;2022-11-13T13:46:35;16.10;99.90
66710;DHT22;53624;0.000;0.000;2022-11-13T13:49:21;16.00;99.90
66710;DHT22;53624;0.000;0.000;2022-11-13T13:52:10;16.00;99.90
66710;DHT22;53624;0.000;0.000;2022-11-13T13:54:59;15.90;99.90
66710;DHT22;53624;0.000;0.000;2022-11-13T13:57:46;15.90;99.90
66710;DHT22;53624;0.000;0.000;2022-11-13T14:00:32;15.90;99.90
66710;DHT22;53624;0.000;0.000;2022-11-13T14:03:19;15.90;99.90
66710;DHT22;53624;0.000;0.000;2022-11-13T14:06:07;15.90;99.90
66710;DHT22;53624;0.000;0.000;2022-11-13T14:08:53;15.90;99.90
66710;DHT22;53624;0.000;0.000;2022-11-13T14:11:41;15.90;99.90
66710;DHT22;53624;0.000;0.000;2022-11-13T14:14:27;15.90;99.90
66710;DHT22;53624;0.000;0.000;2022-11-13T14:17:20;15.90;99.90
66710;DHT22;53624;0.000;0.000;2022-11-13T14:20:10;15.90;99.90
66710;DHT22;53624;0.000;0.000;2022-11-13T14:22:56;15.80;99.90
66710;DHT22;53624;0.000;0.000;2022-11-13T14:25:42;15.80;99.90
66710;DHT22;53624;0.000;0.000;2022-11-13T14:28:30;15.80;99.90
66710;DHT22;53624;0.000;0.000;2022-11-13T14:31:17;15.80;99.90
66710;DHT22;53624;0.000;0.000;2022-11-13T14:34:07;15.70;99.90
66710;DHT22;53624;0.000;0.000;2022-11-13T14:36:54;15.70;99.90
66710;DHT22;53624;0.000;0.000;2022-11-13T14:39:39;15.70;99.90
66710;DHT22;53624;0.000;0.000;2022-11-13T14:42:29;15.60;99.90
66710;DHT22;53624;0.000;0.000;2022-11-13T14:45:22;15.60;99.90
66710;DHT22;53624;0.000;0.000;2022-11-13T14:48:16;15.50;99.90
66710;DHT22;53624;0.000;0.000;2022-11-13T14:51:03;15.50;99.90
66710;DHT22;53624;0.000;0.000;2022-11-13T14:53:55;15.50;99.90
66710;DHT22;53624;0.000;0.000;2022-11-13T14:56:42;15.40;99.90
66710;DHT22;53624;0.000;0.000;2022-11-13T14:59:27;15.40;99.90
66710;DHT22;53624;0.000;0.000;2022-11-13T15:02:15;15.30;99.90
66710;DHT22;53624;0.000;0.000;2022-11-13T15:05:01;15.30;99.90
66710;DHT22;53624;0.000;0.000;2022-11-13T15:07:46;15.30;99.90
66710;DHT22;53624;0.000;0.000;2022-11-13T15:10:33;15.20;99.90
66710;DHT22;53624;0.000;0.000;2022-11-13T15:13:20;15.30;99.90
66710;DHT22;53624;0.000;0.000;2022-11-13T15:16:08;15.20;99.90
66710;DHT22;53624;0.000;0.000;2022-11-13T15:18:59;15.20;99.90
66710;DHT22;53624;0.000;0.000;2022-11-13T15:21:45;15.20;99.90
66710;DHT22;53624;0.000;0.000;2022-11-13T15:24:31;15.20;99.90
66710;DHT22;53624;0.000;0.000;2022-11-13T15:27:17;15.10;99.90
66710;DHT22;53624;0.000;0.000;2022-11-13T15:30:04;15.10;99.90
66710;DHT22;53624;0.000;0.000;2022-11-13T15:32:50;15.10;99.90
66710;DHT22;53624;0.000;0.000;2022-11-13T15:35:39;15.10;99.90
66710;DHT22;53624;0.000;0.000;2022-11-13T15:38:25;15.00;99.90
66710;DHT22;53624;0.000;0.000;2022-11-13T15:41:11;15.00;99.90
66710;DHT22;53624;0.000;0.000;2022-11-13T15:43:58;15.00;99.90
66710;DHT22;53624;0.000;0.000;2022-11-13T15:46:45;15.00;99.90
66710;DHT22;53624;0.000;0.000;2022-11-13T15:49:31;14.90;99.90
66710;DHT22;53624;0.000;0.000;2022-11-13T15:52:18;14.90;99.90
66710;DHT22;53624;0.000;0.000;2022-11-13T15:55:05;14.80;99.90
66710;DHT22;53624;0.000;0.000;2022-11-13T15:57:57;14.90;99.90
66710;DHT22;53624;0.000;0.000;2022-11-13T16:00:43;14.80;99.90
66710;DHT22;53624;0.000;0.000;2022-11-13T16:03:29;14.80;99.90
66710;DHT22;53624;0.000;0.000;2022-11-13T16:06:22;14.80;99.90
66710;DHT22;53624;0.000;0.000;2022-11-13T16:09:12;14.70;99.90
66710;DHT22;53624;0.000;0.000;2022-11-13T16:11:58;14.70;99.90
66710;DHT22;53624;0.000;0.000;2022-11-13T16:14:44;14.70;99.90
66710;DHT22;53624;0.000;0.000;2022-11-13T16:17:30;14.60;99.90
66710;DHT22;53624;0.000;0.000;2022-11-13T16:20:18;14.60;99.90
66710;DHT22;53624;0.000;0.000;2022-11-13T16:23:04;14.60;99.90
66710;DHT22;53624;0.000;0.000;2022-11-13T16:25:51;14.60;99.90
66710;DHT22;53624;0.000;0.000;2022-11-13T16:28:38;14.60;99.90
66710;DHT22;53624;0.000;0.000;2022-11-13T16:31:24;14.50;99.90
66710;DHT22;53624;0.000;0.000;2022-11-13T16:34:10;14.50;99.90
66710;DHT22;53624;0.000;0.000;2022-11-13T16:36:56;14.50;99.90
66710;DHT22;53624;0.000;0.000;2022-11-13T16:39:42;14.40;99.90
66710;DHT22;53624;0.000;0.000;2022-11-13T16:42:30;14.50;99.90
66710;DHT22;53624;0.000;0.000;2022-11-13T16:45:16;14.40;99.90
66710;DHT22;53624;0.000;0.000;2022-11-13T16:48:03;14.40;99.90
66710;DHT22;53624;0.000;0.000;2022-11-13T16:50:49;14.40;99.90
66710;DHT22;53624;0.000;0.000;2022-11-13T16:53:35;14.40;99.90
66710;DHT22;53624;0.000;0.000;2022-11-13T16:56:22;14.40;99.90
66710;DHT22;53624;0.000;0.000;2022-11-13T16:59:13;14.40;99.90
66710;DHT22;53624;0.000;0.000;2022-11-13T17:01:59;14.30;99.90
66710;DHT22;53624;0.000;0.000;2022-11-13T17:04:45;14.30;99.90
66710;DHT22;53624;0.000;0.000;2022-11-13T17:07:32;14.30;99.90
66710;DHT22;53624;0.000;0.000;2022-11-13T17:10:19;14.30;99.90
66710;DHT22;53624;0.000;0.000;2022-11-13T17:13:05;14.30;99.90
66710;DHT22;53624;0.000;0.000;2022-11-13T17:15:52;14.20;99.90
66710;DHT22;53624;0.000;0.000;2022-11-13T17:18:38;14.20;99.90
66710;DHT22;53624;0.000;0.000;2022-11-13T17:21:25;14.20;99.90
66710;DHT22;53624;0.000;0.000;2022-11-13T17:24:12;14.20;99.90
66710;DHT22;53624;0.000;0.000;2022-11-13T17:26:58;14.20;99.90
66710;DHT22;53624;0.000;0.000;2022-11-13T17:29:44;14.20;99.90
66710;DHT22;53624;0.000;0.000;2022-11-13T17:32:32;14.10;99.90
66710;DHT22;53624;0.000;0.000;2022-11-13T17:35:18;14.10;99.90
66710;DHT22;53624;0.000;0.000;2022-11-13T17:38:04;14.10;99.90
66710;DHT22;53624;0.000;0.000;2022-11-13T17:40:50;14.10;99.90
66710;DHT22;53624;0.000;0.000;2022-11-13T17:43:37;14.10;99.90
66710;DHT22;53624;0.000;0.000;2022-11-13T17:46:23;14.10;99.90
66710;DHT22;53624;0.000;0.000;2022-11-13T17:49:10;14.00;99.90
66710;DHT22;53624;0.000;0.000;2022-11-13T17:51:56;14.00;99.90
66710;DHT22;53624;0.000;0.000;2022-11-13T17:54:42;14.00;99.90
66710;DHT22;53624;0.000;0.000;2022-11-13T17:57:29;14.00;99.90
66710;DHT22;53624;0.000;0.000;2022-11-13T18:00:16;14.00;99.90